createdAt,value
2018-05-16T00:00:36.841Z,53.62
2018-05-16T00:01:38.658Z,53.81
2018-05-16T00:02:36.750Z,53.72
2018-05-16T00:03:36.804Z,53.43
2018-05-16T00:04:36.802Z,53.81
2018-05-16T00:05:36.799Z,54.68
2018-05-16T00:06:36.808Z,54.78
2018-05-16T00:07:36.772Z,55.23
2018-05-16T00:08:38.602Z,55.52
2018-05-16T00:09:36.818Z,55.13
2018-05-16T00:10:36.797Z,54.46
2018-05-16T00:11:36.808Z,55.23
2018-05-16T00:12:36.833Z,55.16
2018-05-16T00:14:36.817Z,55.71
2018-05-16T00:15:36.795Z,55.81
2018-05-16T00:16:36.825Z,56.48
2018-05-16T00:17:36.837Z,56.38
2018-05-16T00:18:36.800Z,56.96
2018-05-16T00:19:36.812Z,57.32
2018-05-16T00:20:36.833Z,57.90
2018-05-16T00:21:36.834Z,58.28
2018-05-16T00:22:37.079Z,58.57
2018-05-16T00:23:36.812Z,58.86
2018-05-16T00:24:38.611Z,58.86
2018-05-16T00:25:36.852Z,59.66
2018-05-16T00:26:36.854Z,59.56
2018-05-16T00:27:36.845Z,59.47
2018-05-16T00:28:36.817Z,59.66
2018-05-16T00:29:36.887Z,59.85
2018-05-16T00:30:36.798Z,60.30
2018-05-16T00:31:36.794Z,60.59
2018-05-16T00:32:36.788Z,60.78
2018-05-16T00:33:36.808Z,60.69
2018-05-16T00:34:36.759Z,60.94
2018-05-16T00:35:36.810Z,61.71
2018-05-16T00:36:36.778Z,60.78
2018-05-16T00:37:36.800Z,60.97
2018-05-16T00:38:43.158Z,60.78
2018-05-16T00:39:36.802Z,61.16
2018-05-16T00:40:36.811Z,60.97
2018-05-16T00:41:36.803Z,60.88
2018-05-16T00:42:36.819Z,60.75
2018-05-16T00:43:36.819Z,62.10
2018-05-16T00:44:36.848Z,62.38
2018-05-16T00:46:36.867Z,62.38
2018-05-16T00:47:36.843Z,63.25
2018-05-16T00:48:36.874Z,63.22
2018-05-16T00:49:36.442Z,63.15
2018-05-16T00:50:36.822Z,63.45
2018-05-16T00:51:36.819Z,63.73
2018-05-16T00:52:36.843Z,64.37
2018-05-16T00:53:36.870Z,65.62
2018-05-16T00:54:36.818Z,66.20
2018-05-16T00:55:36.452Z,67.13
2018-05-16T00:56:36.825Z,67.61
2018-05-16T00:57:36.878Z,67.80
2018-05-16T00:58:36.811Z,67.32
2018-05-16T00:59:36.821Z,67.32
2018-05-16T01:00:36.814Z,67.32
2018-05-16T01:01:36.825Z,67.80
2018-05-16T01:02:36.822Z,67.80
2018-05-16T01:03:36.805Z,67.74
2018-05-16T01:04:36.845Z,67.93
2018-05-16T01:05:36.837Z,67.64
2018-05-16T01:06:36.815Z,66.20
2018-05-16T01:07:36.818Z,66.16
2018-05-16T01:08:42.849Z,66.07
2018-05-16T01:09:36.836Z,66.74
2018-05-16T01:10:36.831Z,66.58
2018-05-16T01:11:36.870Z,66.46
2018-05-16T01:12:36.859Z,66.55
2018-05-16T01:13:36.875Z,67.41
2018-05-16T01:14:36.878Z,67.41
2018-05-16T01:15:36.828Z,67.32
2018-05-16T01:16:36.835Z,65.62
2018-05-16T01:17:36.872Z,66.49
2018-05-16T01:18:36.853Z,65.33
2018-05-16T01:19:36.840Z,66.07
2018-05-16T01:20:37.097Z,66.55
2018-05-16T01:21:36.826Z,66.07
2018-05-16T01:22:36.873Z,67.61
2018-05-16T01:23:36.849Z,67.67
2018-05-16T01:25:37.100Z,67.22
2018-05-16T01:26:36.827Z,67.32
2018-05-16T01:27:36.807Z,67.80
2018-05-16T01:28:36.798Z,67.70
2018-05-16T01:29:36.815Z,68.37
2018-05-16T01:30:36.817Z,68.05
2018-05-16T01:31:36.796Z,67.90
2018-05-16T01:32:36.806Z,67.41
2018-05-16T01:33:36.822Z,67.22
2018-05-16T01:34:36.825Z,67.38
2018-05-16T01:35:36.816Z,67.32
2018-05-16T01:36:36.827Z,67.29
2018-05-16T01:37:36.840Z,66.61
2018-05-16T01:38:36.812Z,67.19
2018-05-16T01:39:36.853Z,67.90
2018-05-16T01:40:37.110Z,67.67
2018-05-16T01:41:36.880Z,68.24
2018-05-16T01:42:36.854Z,67.13
2018-05-16T01:43:36.890Z,67.03
2018-05-16T01:44:37.116Z,66.36
2018-05-16T01:45:36.849Z,66.55
2018-05-16T01:46:36.836Z,66.55
2018-05-16T01:47:36.890Z,65.49
2018-05-16T01:48:36.872Z,65.40
2018-05-16T01:49:36.928Z,66.13
2018-05-16T01:50:36.886Z,66.71
2018-05-16T01:51:36.887Z,66.52
2018-05-16T01:52:36.869Z,67.19
2018-05-16T01:53:36.856Z,67.19
2018-05-16T01:54:36.833Z,66.90
2018-05-16T01:55:36.810Z,67.67
2018-05-16T01:56:36.812Z,68.05
2018-05-16T01:57:37.075Z,67.67
2018-05-16T01:58:36.818Z,67.47
2018-05-16T01:59:36.805Z,67.13
2018-05-16T02:00:36.835Z,66.80
2018-05-16T02:01:36.874Z,67.67
2018-05-16T02:02:36.852Z,67.57
2018-05-16T02:03:37.106Z,67.86
2018-05-16T02:04:36.867Z,68.82
2018-05-16T02:05:36.886Z,69.07
2018-05-16T02:06:36.887Z,68.73
2018-05-16T02:07:37.105Z,68.44
2018-05-16T02:08:37.102Z,68.34
2018-05-16T02:09:37.088Z,68.88
2018-05-16T02:10:37.085Z,69.26
2018-05-16T02:11:36.896Z,69.56
2018-05-16T02:12:36.920Z,69.46
2018-05-16T02:13:36.911Z,69.93
2018-05-16T02:14:36.987Z,70.23
2018-05-16T02:15:37.088Z,70.13
2018-05-16T02:16:36.969Z,70.23
2018-05-16T02:17:36.952Z,70.32
2018-05-16T02:18:37.090Z,69.65
2018-05-16T02:19:36.937Z,69.46
2018-05-16T02:20:36.962Z,69.74
2018-05-16T02:21:36.965Z,70.61
2018-05-16T02:22:36.848Z,70.86
2018-05-16T02:23:36.925Z,71.37
2018-05-16T02:24:36.826Z,71.66
2018-05-16T02:25:36.889Z,71.63
2018-05-16T02:26:36.868Z,71.47
2018-05-16T02:27:36.825Z,70.23
2018-05-16T02:28:39.099Z,71.76
2018-05-16T02:29:36.835Z,72.49
2018-05-16T02:30:36.874Z,71.37
2018-05-16T02:31:36.889Z,70.99
2018-05-16T02:32:36.832Z,71.95
2018-05-16T02:33:36.871Z,71.86
2018-05-16T02:34:37.116Z,72.05
2018-05-16T02:35:36.899Z,72.11
2018-05-16T02:36:36.892Z,72.30
2018-05-16T02:37:36.915Z,72.78
2018-05-16T02:38:37.094Z,72.43
2018-05-16T02:39:37.098Z,72.39
2018-05-16T02:40:36.977Z,72.81
2018-05-16T02:41:36.921Z,72.14
2018-05-16T02:42:36.933Z,72.68
2018-05-16T02:43:36.895Z,72.97
2018-05-16T02:44:36.940Z,73.26
2018-05-16T02:45:36.980Z,73.45
2018-05-16T02:46:36.972Z,73.35
2018-05-16T02:47:37.284Z,72.97
2018-05-16T02:48:37.067Z,72.88
2018-05-16T02:49:37.181Z,72.39
2018-05-16T02:50:37.128Z,72.97
2018-05-16T02:51:36.839Z,73.83
2018-05-16T02:52:36.900Z,73.83
2018-05-16T02:53:36.930Z,73.74
2018-05-16T02:54:36.948Z,74.22
2018-05-16T02:55:36.943Z,74.31
2018-05-16T02:56:36.959Z,73.45
2018-05-16T02:57:36.995Z,73.93
2018-05-16T02:58:36.969Z,74.31
2018-05-16T02:59:36.979Z,74.22
2018-05-16T03:00:38.754Z,74.51
2018-05-16T03:01:36.974Z,74.60
2018-05-16T03:02:36.980Z,75.08
2018-05-16T03:03:38.753Z,74.02
2018-05-16T03:04:36.978Z,74.69
2018-05-16T03:05:36.974Z,74.31
2018-05-16T03:06:36.680Z,74.31
2018-05-16T03:07:37.012Z,74.60
2018-05-16T03:08:37.028Z,74.41
2018-05-16T03:09:37.034Z,75.04
2018-05-16T03:10:36.976Z,74.60
2018-05-16T03:11:37.006Z,75.04
2018-05-16T03:12:37.036Z,76.10
2018-05-16T03:13:42.284Z,76.19
2018-05-16T03:14:37.000Z,76.23
2018-05-16T03:15:37.044Z,75.90
2018-05-16T03:16:37.032Z,75.90
2018-05-16T03:17:37.060Z,75.65
2018-05-16T03:18:37.195Z,75.90
2018-05-16T03:19:36.906Z,76.29
2018-05-16T03:20:36.881Z,76.00
2018-05-16T03:21:36.899Z,75.65
2018-05-16T03:22:36.971Z,75.90
2018-05-16T03:23:36.918Z,75.43
2018-05-16T03:24:36.972Z,76.00
2018-05-16T03:25:36.906Z,75.62
2018-05-16T03:26:36.961Z,76.57
2018-05-16T03:27:36.953Z,76.39
2018-05-16T03:28:36.979Z,76.19
2018-05-16T03:29:36.972Z,76.29
2018-05-16T03:30:36.940Z,76.19
2018-05-16T03:31:36.977Z,76.10
2018-05-16T03:32:36.973Z,76.29
2018-05-16T03:33:37.050Z,76.00
2018-05-16T03:34:36.983Z,76.67
2018-05-16T03:35:36.999Z,77.06
2018-05-16T03:36:36.965Z,77.15
2018-05-16T03:37:37.109Z,76.96
2018-05-16T03:38:37.011Z,76.77
2018-05-16T03:39:36.997Z,76.96
2018-05-16T03:40:37.059Z,77.25
2018-05-16T03:41:37.012Z,76.96
2018-05-16T03:42:37.085Z,76.96
2018-05-16T03:43:36.982Z,76.96
2018-05-16T03:44:37.127Z,76.96
2018-05-16T03:45:37.027Z,76.77
2018-05-16T03:46:37.069Z,77.63
2018-05-16T03:47:37.235Z,77.15
2018-05-16T03:48:36.904Z,76.86
2018-05-16T03:49:36.915Z,76.96
2018-05-16T03:50:36.912Z,76.77
2018-05-16T03:51:36.983Z,77.06
2018-05-16T03:52:36.963Z,77.06
2018-05-16T03:53:36.907Z,77.06
2018-05-16T03:54:36.913Z,77.73
2018-05-16T03:55:36.913Z,77.53
2018-05-16T03:56:36.974Z,77.53
2018-05-16T03:57:36.974Z,77.63
2018-05-16T03:58:36.944Z,77.73
2018-05-16T03:59:37.064Z,77.63
2018-05-16T04:00:37.138Z,78.17
2018-05-16T04:01:37.069Z,79.32
2018-05-16T04:02:37.055Z,78.74
2018-05-16T04:03:37.000Z,78.59
2018-05-16T04:04:37.019Z,78.02
2018-05-16T04:05:37.058Z,77.92
2018-05-16T04:06:37.122Z,77.82
2018-05-16T04:07:37.065Z,77.34
2018-05-16T04:08:36.905Z,77.63
2018-05-16T04:09:38.794Z,78.02
2018-05-16T04:10:37.055Z,78.59
2018-05-16T04:11:36.997Z,78.84
2018-05-16T04:12:36.966Z,78.74
2018-05-16T04:13:37.108Z,78.64
2018-05-16T04:14:36.331Z,78.78
2018-05-16T04:15:37.046Z,78.49
2018-05-16T04:16:37.062Z,78.02
2018-05-16T04:17:37.045Z,78.40
2018-05-16T04:18:36.971Z,78.40
2018-05-16T04:19:37.058Z,78.02
2018-05-16T04:20:37.057Z,78.49
2018-05-16T04:21:37.068Z,78.40
2018-05-16T04:22:37.078Z,78.30
2018-05-16T04:23:36.994Z,78.59
2018-05-16T04:24:37.522Z,78.78
2018-05-16T04:25:37.175Z,78.59
2018-05-16T04:26:37.122Z,78.69
2018-05-16T04:27:37.096Z,78.69
2018-05-16T04:28:37.358Z,78.49
2018-05-16T04:29:37.488Z,78.49
2018-05-16T04:30:36.760Z,78.11
2018-05-16T04:31:37.148Z,77.44
2018-05-16T04:32:39.001Z,77.53
2018-05-16T04:33:37.169Z,78.59
2018-05-16T04:34:37.151Z,77.92
2018-05-16T04:35:39.036Z,78.69
2018-05-16T04:36:38.953Z,78.88
2018-05-16T04:37:38.966Z,79.16
2018-05-16T04:38:37.131Z,78.69
2018-05-16T04:39:37.064Z,78.11
2018-05-16T04:40:37.667Z,78.69
2018-05-16T04:41:36.966Z,78.59
2018-05-16T04:42:36.971Z,78.59
2018-05-16T04:43:37.007Z,77.67
2018-05-16T04:44:37.006Z,77.63
2018-05-16T04:45:38.228Z,77.38
2018-05-16T04:46:37.150Z,77.73
2018-05-16T04:47:37.135Z,77.34
2018-05-16T04:48:37.567Z,77.63
2018-05-16T04:49:37.116Z,77.92
2018-05-16T04:50:37.473Z,78.30
2018-05-16T04:51:37.134Z,77.63
2018-05-16T04:52:37.150Z,77.25
2018-05-16T04:53:37.112Z,78.30
2018-05-16T04:54:37.154Z,77.63
2018-05-16T04:55:37.419Z,77.53
2018-05-16T04:56:37.136Z,77.95
2018-05-16T04:57:37.459Z,77.76
2018-05-16T04:58:37.440Z,77.86
2018-05-16T04:59:37.449Z,78.05
2018-05-16T05:00:37.429Z,77.29
2018-05-16T05:02:01.983Z,77.86
2018-05-16T05:02:37.667Z,76.71
2018-05-16T05:03:37.644Z,76.52
2018-05-16T05:04:37.433Z,76.42
2018-05-16T05:05:37.688Z,76.42
2018-05-16T05:06:37.455Z,76.71
2018-05-16T05:07:37.690Z,76.42
2018-05-16T05:08:37.312Z,76.23
2018-05-16T05:09:37.379Z,76.71
2018-05-16T05:10:37.369Z,77.00
2018-05-16T05:11:36.716Z,76.81
2018-05-16T05:12:36.733Z,76.23
2018-05-16T05:13:36.740Z,75.08
2018-05-16T05:14:36.737Z,74.89
2018-05-16T05:15:36.691Z,75.08
2018-05-16T05:16:37.373Z,74.60
2018-05-16T05:17:37.435Z,74.22
2018-05-16T05:18:36.868Z,73.74
2018-05-16T05:19:36.791Z,73.55
2018-05-16T05:20:35.833Z,73.93
2018-05-16T05:21:37.192Z,74.89
2018-05-16T05:22:36.988Z,74.41
2018-05-16T05:23:37.683Z,74.64
2018-05-16T05:24:37.202Z,74.79
2018-05-16T05:25:36.423Z,74.54
2018-05-16T05:26:36.668Z,74.51
2018-05-16T05:27:36.664Z,75.37
2018-05-16T05:28:36.447Z,75.46
2018-05-16T05:29:36.813Z,74.02
2018-05-16T05:30:36.823Z,73.58
2018-05-16T05:31:36.442Z,74.22
2018-05-16T05:32:36.846Z,74.16
2018-05-16T05:33:36.859Z,74.35
2018-05-16T05:34:36.881Z,74.06
2018-05-16T05:35:36.839Z,73.58
2018-05-16T05:36:36.992Z,73.77
2018-05-16T05:37:36.888Z,73.58
2018-05-16T05:38:36.885Z,73.87
2018-05-16T05:39:38.677Z,73.68
2018-05-16T05:40:36.770Z,73.58
2018-05-16T05:41:37.381Z,73.39
2018-05-16T05:42:36.831Z,74.26
2018-05-16T05:43:37.383Z,74.44
2018-05-16T05:44:37.694Z,74.16
2018-05-16T05:45:37.440Z,74.06
2018-05-16T05:46:37.701Z,74.16
2018-05-16T05:47:37.657Z,73.87
2018-05-16T05:48:37.700Z,73.00
2018-05-16T05:49:37.454Z,73.24
2018-05-16T05:50:37.390Z,72.91
2018-05-16T05:51:37.434Z,72.72
2018-05-16T05:52:37.452Z,72.85
2018-05-16T05:53:37.445Z,73.30
2018-05-16T05:54:37.448Z,73.97
2018-05-16T05:55:37.702Z,73.62
2018-05-16T05:56:37.708Z,73.62
2018-05-16T05:57:37.392Z,73.52
2018-05-16T05:58:37.433Z,73.33
2018-05-16T05:59:37.395Z,73.43
2018-05-16T06:00:37.205Z,73.62
2018-05-16T06:01:37.422Z,73.52
2018-05-16T06:02:37.705Z,73.72
2018-05-16T06:03:37.709Z,73.72
2018-05-16T06:04:37.418Z,73.91
2018-05-16T06:05:37.705Z,73.52
2018-05-16T06:06:37.482Z,73.72
2018-05-16T06:07:37.457Z,73.81
2018-05-16T06:08:37.711Z,73.52
2018-05-16T06:09:37.705Z,73.52
2018-05-16T06:10:37.705Z,73.08
2018-05-16T06:11:40.058Z,72.79
2018-05-16T06:12:39.506Z,72.37
2018-05-16T06:13:37.709Z,72.60
2018-05-16T06:14:37.709Z,73.24
2018-05-16T06:15:37.704Z,73.04
2018-05-16T06:16:37.488Z,73.04
2018-05-16T06:17:37.751Z,72.79
2018-05-16T06:18:37.705Z,72.95
2018-05-16T06:19:37.528Z,73.27
2018-05-16T06:20:37.478Z,72.79
2018-05-16T06:21:37.716Z,71.93
2018-05-16T06:22:38.225Z,71.87
2018-05-16T06:23:37.494Z,71.77
2018-05-16T06:24:37.212Z,71.77
2018-05-16T06:25:37.719Z,71.39
2018-05-16T06:26:37.705Z,70.90
2018-05-16T06:27:39.192Z,71.10
2018-05-16T06:28:40.010Z,70.62
2018-05-16T06:29:36.904Z,70.33
2018-05-16T06:30:37.711Z,71.00
2018-05-16T06:31:37.208Z,70.94
2018-05-16T06:32:37.604Z,70.90
2018-05-16T06:33:37.715Z,70.72
2018-05-16T06:34:37.856Z,71.87
2018-05-16T06:35:37.517Z,71.77
2018-05-16T06:36:38.019Z,71.58
2018-05-16T06:37:37.764Z,71.67
2018-05-16T06:38:37.758Z,71.58
2018-05-16T06:39:44.152Z,71.77
2018-05-16T06:40:43.440Z,71.67
2018-05-16T06:41:37.420Z,71.73
2018-05-16T06:42:37.395Z,71.73
2018-05-16T06:43:37.472Z,72.41
2018-05-16T06:44:37.435Z,72.50
2018-05-16T06:45:36.991Z,72.31
2018-05-16T06:46:37.703Z,72.60
2018-05-16T06:47:37.424Z,73.08
2018-05-16T06:48:37.724Z,72.02
2018-05-16T06:49:37.472Z,71.35
2018-05-16T06:50:37.479Z,71.45
2018-05-16T06:51:37.454Z,71.93
2018-05-16T06:52:37.725Z,71.96
2018-05-16T06:53:38.172Z,71.83
2018-05-16T06:54:51.866Z,72.02
2018-05-16T06:55:37.114Z,71.93
2018-05-16T06:56:38.077Z,72.02
2018-05-16T06:57:39.096Z,71.67
2018-05-16T06:58:38.020Z,71.77
2018-05-16T06:59:37.527Z,72.16
2018-05-16T07:00:37.537Z,72.92
2018-05-16T07:01:37.769Z,72.06
2018-05-16T07:02:37.556Z,72.16
2018-05-16T07:03:37.903Z,71.96
2018-05-16T07:04:38.012Z,71.45
2018-05-16T07:05:37.081Z,72.22
2018-05-16T07:06:37.525Z,71.73
2018-05-16T07:07:37.460Z,71.48
2018-05-16T07:08:37.775Z,71.64
2018-05-16T07:09:37.523Z,71.19
2018-05-16T07:10:37.524Z,71.00
2018-05-16T07:11:37.523Z,70.81
2018-05-16T07:12:38.192Z,70.14
2018-05-16T07:13:37.743Z,70.78
2018-05-16T07:14:37.499Z,71.58
2018-05-16T07:15:37.544Z,72.54
2018-05-16T07:16:37.739Z,72.16
2018-05-16T07:17:37.537Z,73.88
2018-05-16T07:18:37.547Z,73.60
2018-05-16T07:19:37.551Z,73.69
2018-05-16T07:20:37.739Z,75.23
2018-05-16T07:21:38.016Z,75.62
2018-05-16T07:22:37.494Z,76.19
2018-05-16T07:23:37.483Z,75.90
2018-05-16T07:24:39.273Z,76.29
2018-05-16T07:25:37.496Z,76.39
2018-05-16T07:26:37.740Z,75.81
2018-05-16T07:27:37.466Z,74.85
2018-05-16T07:28:37.485Z,74.37
2018-05-16T07:29:37.578Z,74.55
2018-05-16T07:30:37.743Z,74.94
2018-05-16T07:31:37.730Z,74.75
2018-05-16T07:32:37.483Z,75.32
2018-05-16T07:33:37.779Z,74.75
2018-05-16T07:34:37.542Z,74.75
2018-05-16T07:35:37.020Z,73.69
2018-05-16T07:36:37.054Z,73.21
2018-05-16T07:37:39.368Z,73.60
2018-05-16T07:38:37.564Z,73.69
2018-05-16T07:39:37.756Z,73.60
2018-05-16T07:40:38.129Z,73.41
2018-05-16T07:41:38.067Z,73.02
2018-05-16T07:42:37.593Z,73.60
2018-05-16T07:43:37.571Z,73.69
2018-05-16T07:44:38.022Z,74.08
2018-05-16T07:45:37.446Z,73.50
2018-05-16T07:46:38.044Z,73.11
2018-05-16T07:47:37.544Z,73.11
2018-05-16T07:48:38.027Z,73.98
2018-05-16T07:49:37.463Z,73.69
2018-05-16T07:50:37.747Z,72.73
2018-05-16T07:51:37.746Z,72.34
2018-05-16T07:52:38.322Z,73.02
2018-05-16T07:53:38.051Z,72.25
2018-05-16T07:54:37.749Z,71.87
2018-05-16T07:55:37.486Z,71.91
2018-05-16T07:56:38.048Z,72.83
2018-05-16T07:57:39.896Z,73.60
2018-05-16T07:58:37.718Z,73.60
2018-05-16T07:59:37.472Z,74.17
2018-05-16T08:00:37.506Z,73.21
2018-05-16T08:01:37.528Z,72.96
2018-05-16T08:02:37.541Z,72.67
2018-05-16T08:03:37.801Z,71.81
2018-05-16T08:04:37.789Z,72.38
2018-05-16T08:05:37.753Z,72.29
2018-05-16T08:06:37.477Z,71.42
2018-05-16T08:07:37.533Z,71.91
2018-05-16T08:08:37.620Z,72.38
2018-05-16T08:09:37.763Z,71.91
2018-05-16T08:10:37.780Z,72.00
2018-05-16T08:11:37.730Z,71.61
2018-05-16T08:12:37.795Z,71.33
2018-05-16T08:13:37.613Z,70.17
2018-05-16T08:14:37.771Z,70.37
2018-05-16T08:15:37.527Z,70.37
2018-05-16T08:16:38.386Z,70.04
2018-05-16T08:17:38.225Z,70.17
2018-05-16T08:18:38.154Z,69.40
2018-05-16T08:19:37.561Z,69.50
2018-05-16T08:20:37.753Z,69.21
2018-05-16T08:21:37.888Z,69.24
2018-05-16T08:22:37.757Z,69.21
2018-05-16T08:23:37.800Z,69.40
2018-05-16T08:24:37.789Z,70.07
2018-05-16T08:25:37.807Z,68.96
2018-05-16T08:26:37.487Z,67.61
2018-05-16T08:27:37.720Z,66.74
2018-05-16T08:28:38.061Z,66.94
2018-05-16T08:29:37.521Z,67.22
2018-05-16T08:30:37.769Z,67.80
2018-05-16T08:31:37.527Z,67.29
2018-05-16T08:32:40.039Z,67.38
2018-05-16T08:33:38.047Z,66.84
2018-05-16T08:34:37.988Z,66.27
2018-05-16T08:35:37.591Z,66.49
2018-05-16T08:36:37.591Z,66.30
2018-05-16T08:37:37.721Z,66.30
2018-05-16T08:38:37.813Z,66.10
2018-05-16T08:39:38.213Z,65.63
2018-05-16T08:40:37.765Z,65.05
2018-05-16T08:41:37.775Z,65.24
2018-05-16T08:42:38.954Z,65.43
2018-05-16T08:43:38.079Z,65.14
2018-05-16T08:44:38.416Z,65.43
2018-05-16T08:45:37.771Z,65.24
2018-05-16T08:46:37.732Z,64.86
2018-05-16T08:47:37.762Z,65.05
2018-05-16T08:48:37.748Z,64.31
2018-05-16T08:49:37.781Z,63.60
2018-05-16T08:50:38.179Z,64.31
2018-05-16T08:51:37.650Z,63.89
2018-05-16T08:52:40.157Z,62.54
2018-05-16T08:53:38.330Z,62.26
2018-05-16T08:54:37.463Z,62.38
2018-05-16T08:55:37.828Z,62.48
2018-05-16T08:56:37.541Z,62.64
2018-05-16T08:57:37.588Z,62.29
2018-05-16T08:58:38.294Z,61.80
2018-05-16T08:59:37.793Z,62.67
2018-05-16T09:00:37.779Z,62.03
2018-05-16T09:01:38.234Z,61.74
2018-05-16T09:02:37.591Z,61.16
2018-05-16T09:03:37.636Z,60.97
2018-05-16T09:04:37.751Z,60.94
2018-05-16T09:05:37.315Z,60.97
2018-05-16T09:06:37.572Z,60.87
2018-05-16T09:07:38.504Z,62.00
2018-05-16T09:08:38.120Z,61.16
2018-05-16T09:09:38.058Z,60.87
2018-05-16T09:10:37.778Z,61.07
2018-05-16T09:12:38.122Z,60.55
2018-05-16T09:13:37.983Z,60.87
2018-05-16T09:14:37.964Z,60.39
2018-05-16T09:15:37.814Z,59.43
2018-05-16T09:16:38.056Z,59.43
2018-05-16T09:17:37.270Z,59.49
2018-05-16T09:18:37.666Z,59.69
2018-05-16T09:19:37.906Z,60.10
2018-05-16T09:20:37.819Z,59.36
2018-05-16T09:21:37.792Z,59.65
2018-05-16T09:22:38.123Z,59.84
2018-05-16T09:23:37.737Z,59.91
2018-05-16T09:24:38.288Z,59.55
2018-05-16T09:25:38.240Z,59.84
2018-05-16T09:26:37.825Z,58.88
2018-05-16T09:27:37.361Z,58.78
2018-05-16T09:28:37.768Z,59.36
2018-05-16T09:29:37.768Z,59.45
2018-05-16T09:30:38.249Z,59.36
2018-05-16T09:31:37.749Z,59.65
2018-05-16T09:32:38.111Z,59.27
2018-05-16T09:33:37.971Z,59.17
2018-05-16T09:34:38.357Z,59.17
2018-05-16T09:35:38.212Z,59.62
2018-05-16T09:36:38.321Z,59.91
2018-05-16T09:37:38.282Z,60.30
2018-05-16T09:38:38.349Z,60.30
2018-05-16T09:39:38.663Z,60.49
2018-05-16T09:40:37.790Z,60.77
2018-05-16T09:41:38.290Z,61.25
2018-05-16T09:42:38.229Z,60.97
2018-05-16T09:43:38.290Z,60.97
2018-05-16T09:44:38.314Z,61.74
2018-05-16T09:45:37.377Z,61.93
2018-05-16T09:46:37.427Z,61.55
2018-05-16T09:47:37.429Z,61.16
2018-05-16T09:48:38.088Z,61.10
2018-05-16T09:49:38.333Z,61.00
2018-05-16T09:50:40.110Z,60.80
2018-05-16T09:51:38.593Z,60.42
2018-05-16T09:52:37.840Z,60.80
2018-05-16T09:53:39.050Z,60.52
2018-05-16T09:54:37.789Z,60.52
2018-05-16T09:55:38.095Z,60.71
2018-05-16T09:56:38.083Z,60.42
2018-05-16T09:57:38.120Z,60.77
2018-05-16T09:58:38.106Z,60.23
2018-05-16T09:59:38.764Z,60.90
2018-05-16T10:00:38.352Z,60.90
2018-05-16T10:01:38.245Z,59.94
2018-05-16T10:02:38.142Z,59.39
2018-05-16T10:03:38.800Z,59.52
2018-05-16T10:04:38.355Z,59.32
2018-05-16T10:06:38.038Z,59.10
2018-05-16T10:07:38.057Z,59.42
2018-05-16T10:08:38.260Z,59.32
2018-05-16T10:09:38.380Z,59.80
2018-05-16T10:10:38.673Z,59.20
2018-05-16T10:11:38.258Z,59.78
2018-05-16T10:12:38.655Z,59.20
2018-05-16T10:13:38.692Z,59.39
2018-05-16T10:14:38.329Z,59.39
2018-05-16T10:15:38.117Z,58.88
2018-05-16T10:16:38.050Z,59.17
2018-05-16T10:17:38.168Z,59.42
2018-05-16T10:18:38.095Z,59.03
2018-05-16T10:19:38.183Z,59.13
2018-05-16T10:20:38.303Z,59.13
2018-05-16T10:21:39.816Z,58.55
2018-05-16T10:22:38.357Z,58.39
2018-05-16T10:23:38.383Z,57.42
2018-05-16T10:24:38.466Z,57.04
2018-05-16T10:25:37.849Z,58.55
2018-05-16T10:26:38.309Z,58.55
2018-05-16T10:27:38.129Z,57.62
2018-05-16T10:28:38.366Z,57.32
2018-05-16T10:29:38.090Z,57.04
2018-05-16T10:30:38.106Z,57.04
2018-05-16T10:31:38.355Z,57.52
2018-05-16T10:32:38.075Z,58.07
2018-05-16T10:33:38.334Z,58.45
2018-05-16T10:34:38.419Z,59.16
2018-05-16T10:35:38.649Z,58.58
2018-05-16T10:36:37.746Z,57.62
2018-05-16T10:37:37.848Z,56.74
2018-05-16T10:38:38.043Z,57.04
2018-05-16T10:39:37.803Z,57.68
2018-05-16T10:40:38.275Z,57.42
2018-05-16T10:41:38.307Z,56.72
2018-05-16T10:42:38.093Z,57.14
2018-05-16T10:43:38.371Z,57.14
2018-05-16T10:44:38.600Z,56.58
2018-05-16T10:45:37.514Z,57.16
2018-05-16T10:46:38.055Z,57.42
2018-05-16T10:47:38.313Z,58.10
2018-05-16T10:48:38.322Z,58.19
2018-05-16T10:49:38.216Z,57.64
2018-05-16T10:50:38.621Z,56.87
2018-05-16T10:51:37.780Z,57.45
2018-05-16T10:52:38.654Z,57.16
2018-05-16T10:53:38.290Z,57.48
2018-05-16T10:54:38.361Z,56.22
2018-05-16T10:55:38.810Z,55.74
2018-05-16T10:56:38.390Z,55.65
2018-05-16T10:57:37.707Z,55.38
2018-05-16T10:58:38.621Z,55.09
2018-05-16T10:59:38.323Z,55.21
2018-05-16T11:00:38.109Z,54.83
2018-05-16T11:01:38.093Z,54.05
2018-05-16T11:02:38.359Z,54.35
2018-05-16T11:03:38.323Z,54.25
2018-05-16T11:04:38.393Z,53.69
2018-05-16T11:05:38.289Z,53.06
2018-05-16T11:06:38.767Z,53.16
2018-05-16T11:07:38.153Z,53.28
2018-05-16T11:08:38.615Z,52.58
2018-05-16T11:09:38.289Z,53.35
2018-05-16T11:10:38.129Z,53.35
2018-05-16T11:11:38.295Z,53.35
2018-05-16T11:12:38.356Z,53.55
2018-05-16T11:13:38.620Z,53.74
2018-05-16T11:14:38.631Z,53.16
2018-05-16T11:15:38.604Z,54.32
2018-05-16T11:16:38.551Z,54.13
2018-05-16T11:17:38.138Z,53.42
2018-05-16T11:18:38.291Z,53.13
2018-05-16T11:19:38.832Z,53.61
2018-05-16T11:20:38.780Z,53.13
2018-05-16T11:21:38.289Z,53.23
2018-05-16T11:22:38.297Z,53.06
2018-05-16T11:23:38.367Z,52.94
2018-05-16T11:24:38.269Z,53.61
2018-05-16T11:25:38.808Z,53.81
2018-05-16T11:26:38.456Z,53.55
2018-05-16T11:27:38.037Z,52.58
2018-05-16T11:28:38.293Z,53.35
2018-05-16T11:29:38.300Z,52.77
2018-05-16T11:30:38.406Z,53.06
2018-05-16T11:31:38.652Z,53.55
2018-05-16T11:32:38.202Z,52.22
2018-05-16T11:33:38.643Z,51.06
2018-05-16T11:34:38.303Z,50.67
2018-05-16T11:35:38.299Z,50.09
2018-05-16T11:37:37.899Z,50.45
2018-05-16T11:38:38.342Z,51.32
2018-05-16T11:39:40.224Z,50.09
2018-05-16T11:40:38.322Z,50.18
2018-05-16T11:41:38.328Z,50.18
2018-05-16T11:42:39.008Z,49.97
2018-05-16T11:43:38.841Z,50.55
2018-05-16T11:44:38.108Z,50.93
2018-05-16T11:45:38.957Z,50.84
2018-05-16T11:46:38.380Z,50.84
2018-05-16T11:47:38.304Z,51.13
2018-05-16T11:48:38.927Z,50.96
2018-05-16T11:49:38.846Z,50.48
2018-05-16T11:50:38.847Z,50.79
2018-05-16T11:51:38.469Z,50.02
2018-05-16T11:52:38.352Z,50.24
2018-05-16T11:53:40.335Z,49.56
2018-05-16T11:54:40.137Z,49.92
2018-05-16T11:55:38.699Z,50.02
2018-05-16T11:56:38.222Z,50.12
2018-05-16T11:57:39.184Z,49.95
2018-05-16T11:58:39.203Z,49.46
2018-05-16T11:59:38.409Z,49.07
2018-05-16T12:00:38.390Z,49.58
2018-05-16T12:01:38.932Z,49.87
2018-05-16T12:02:39.253Z,49.19
2018-05-16T12:03:38.425Z,47.62
2018-05-16T12:04:38.833Z,48.88
2018-05-16T12:05:38.043Z,49.05
2018-05-16T12:06:40.444Z,48.66
2018-05-16T12:07:38.963Z,48.59
2018-05-16T12:08:38.884Z,48.88
2018-05-16T12:09:39.086Z,49.15
2018-05-16T12:10:39.178Z,49.15
2018-05-16T12:11:39.181Z,50.21
2018-05-16T12:12:39.171Z,50.76
2018-05-16T12:13:38.817Z,51.06
2018-05-16T12:14:39.309Z,51.81
2018-05-16T12:15:39.160Z,51.35
2018-05-16T12:16:38.929Z,51.47
2018-05-16T12:17:39.197Z,51.28
2018-05-16T12:18:38.673Z,50.72
2018-05-16T12:19:38.327Z,50.04
2018-05-16T12:20:38.931Z,49.65
2018-05-16T12:21:39.458Z,49.39
2018-05-16T12:22:40.873Z,49.77
2018-05-16T12:23:38.161Z,49.00
2018-05-16T12:24:38.862Z,49.29
2018-05-16T12:25:39.161Z,49.10
2018-05-16T12:26:38.130Z,49.46
2018-05-16T12:27:38.823Z,49.37
2018-05-16T12:28:38.908Z,49.95
2018-05-16T12:29:39.226Z,49.17
2018-05-16T12:30:38.060Z,50.04
2018-05-16T12:31:39.175Z,50.04
2018-05-16T12:32:38.655Z,50.33
2018-05-16T12:33:38.826Z,50.02
2018-05-16T12:34:39.285Z,51.08
2018-05-16T12:35:38.872Z,51.20
2018-05-16T12:36:38.636Z,50.62
2018-05-16T12:37:39.416Z,50.07
2018-05-16T12:38:41.633Z,50.16
2018-05-16T12:39:38.873Z,50.92
2018-05-16T12:40:38.912Z,51.01
2018-05-16T12:41:39.167Z,50.94
2018-05-16T12:42:39.233Z,51.32
2018-05-16T12:43:40.689Z,51.52
2018-05-16T12:44:38.694Z,52.75
2018-05-16T12:45:40.620Z,51.50
2018-05-16T12:46:38.941Z,51.52
2018-05-16T12:47:38.932Z,51.32
2018-05-16T12:48:38.712Z,50.19
2018-05-16T12:49:38.799Z,49.12
2018-05-16T12:50:39.179Z,49.63
2018-05-16T12:51:38.877Z,49.51
2018-05-16T12:52:39.176Z,50.19
2018-05-16T12:53:38.880Z,50.77
2018-05-16T12:54:38.699Z,50.09
2018-05-16T12:55:38.767Z,51.13
2018-05-16T12:56:38.764Z,52.46
2018-05-16T12:57:38.774Z,52.49
2018-05-16T12:58:40.679Z,53.33